Forside
METAR-TAF:

METAR-TAF

Lufthavne :

Damaskus, Syrien

Breddekreds: 33-25N, længdekreds: 036-31E, højde: 608 m

Aktuelle vejr

Denne rapport blev lavet for 24 minutter siden, kl. 00:00 UTC
Vind 6 kt fra nordøst
Temperatur 17°C
Fugtighed 59%
Tryk 1015 hPa
Sigt 10 km eller mere
ingen skyer under 1500m og ingen cumulonimbus

METAR: OSDI 200000Z 05006KT CAVOK 17/09 Q1015

Tid: 03:24 (00:24 UTC)

Vejrudsigter

Denne rapport blev lavet for 2 timer og 24 minutter siden, kl. 22:00 UTC
Foreløbig gælder fra 20 på 00 UTC til 21 på 06 UTC
Vind 3 kt fra varierende retninger
Sigt: 8000 m
Nogle få skyer i en højde af 3000 ft
Midlertidig
fra 20 på 12 UTC til 20 på 18 UTC
Vind 10 kt fra sydvest

TAF: OSDI 192200Z 2000/2106 VRB03KT 8000 FEW030 TEMPO 2012/2018 23010KT

Vejrobservationer og prognoser fra mere end 4000 lufthavne (METAR og TAF).

De gule og røde prikker repræsenterer de meteorologiske stationer.

Flyt musen over at se navnet på stationen.

Så klik over at se vejr observationer og prognoser.

At skifte det kort: Klik på de grønne knapper med et sort kors for at zoome ind; på den grønne knap med en bindestreg for at zoome ud; eller på de grønne pile for tilstødende kort.


METAR-TAF: